sensor_id;sensor_type;location;lat;lon;timestamp;temperature;humidity
13346;DHT22;6742;48.036;15.780;2023-03-24T00:01:09;12.20;99.90
13346;DHT22;6742;48.036;15.780;2023-03-24T00:03:36;12.20;99.90
13346;DHT22;6742;48.036;15.780;2023-03-24T00:06:05;12.10;99.90
13346;DHT22;6742;48.036;15.780;2023-03-24T00:08:35;12.10;99.90
13346;DHT22;6742;48.036;15.780;2023-03-24T00:11:05;12.00;99.90
13346;DHT22;6742;48.036;15.780;2023-03-24T00:13:33;12.10;99.90
13346;DHT22;6742;48.036;15.780;2023-03-24T00:16:03;12.00;99.90
13346;DHT22;6742;48.036;15.780;2023-03-24T00:18:32;11.90;99.90
13346;DHT22;6742;48.036;15.780;2023-03-24T00:20:59;11.90;99.90
13346;DHT22;6742;48.036;15.780;2023-03-24T00:23:27;11.80;99.90
13346;DHT22;6742;48.036;15.780;2023-03-24T00:26:01;11.80;99.90
13346;DHT22;6742;48.036;15.780;2023-03-24T00:28:29;11.80;99.90
13346;DHT22;6742;48.036;15.780;2023-03-24T00:30:58;11.80;99.90
13346;DHT22;6742;48.036;15.780;2023-03-24T00:33:25;11.80;99.90
13346;DHT22;6742;48.036;15.780;2023-03-24T00:35:53;11.80;99.90
13346;DHT22;6742;48.036;15.780;2023-03-24T00:38:22;11.70;99.90
13346;DHT22;6742;48.036;15.780;2023-03-24T00:40:49;11.70;99.90
13346;DHT22;6742;48.036;15.780;2023-03-24T00:43:16;11.70;99.90
13346;DHT22;6742;48.036;15.780;2023-03-24T00:45:43;11.70;99.90
13346;DHT22;6742;48.036;15.780;2023-03-24T00:48:11;11.70;99.90
13346;DHT22;6742;48.036;15.780;2023-03-24T00:50:42;11.60;99.90
13346;DHT22;6742;48.036;15.780;2023-03-24T00:53:13;11.60;99.90
13346;DHT22;6742;48.036;15.780;2023-03-24T00:55:40;11.50;99.90
13346;DHT22;6742;48.036;15.780;2023-03-24T00:58:11;11.50;99.90
13346;DHT22;6742;48.036;15.780;2023-03-24T01:00:43;11.40;99.90
13346;DHT22;6742;48.036;15.780;2023-03-24T01:03:10;11.40;99.90
13346;DHT22;6742;48.036;15.780;2023-03-24T01:05:38;11.50;99.90
13346;DHT22;6742;48.036;15.780;2023-03-24T01:08:07;11.50;99.90
13346;DHT22;6742;48.036;15.780;2023-03-24T01:10:38;11.50;99.90
13346;DHT22;6742;48.036;15.780;2023-03-24T01:13:18;11.40;99.90
13346;DHT22;6742;48.036;15.780;2023-03-24T01:15:45;11.40;99.90
13346;DHT22;6742;48.036;15.780;2023-03-24T01:18:14;11.30;99.90
13346;DHT22;6742;48.036;15.780;2023-03-24T01:20:42;11.30;99.90
13346;DHT22;6742;48.036;15.780;2023-03-24T01:23:12;11.30;99.90
13346;DHT22;6742;48.036;15.780;2023-03-24T01:25:42;11.30;99.90
13346;DHT22;6742;48.036;15.780;2023-03-24T01:28:10;11.30;99.90
13346;DHT22;6742;48.036;15.780;2023-03-24T01:30:38;11.30;99.90
13346;DHT22;6742;48.036;15.780;2023-03-24T01:33:06;11.20;99.90
13346;DHT22;6742;48.036;15.780;2023-03-24T01:35:33;11.20;99.90
13346;DHT22;6742;48.036;15.780;2023-03-24T01:38:01;11.20;99.90
13346;DHT22;6742;48.036;15.780;2023-03-24T01:40:33;11.10;99.90
13346;DHT22;6742;48.036;15.780;2023-03-24T01:43:02;11.00;99.90
13346;DHT22;6742;48.036;15.780;2023-03-24T01:45:56;11.00;99.90
13346;DHT22;6742;48.036;15.780;2023-03-24T01:48:27;11.00;99.90
13346;DHT22;6742;48.036;15.780;2023-03-24T01:50:58;10.90;99.90
13346;DHT22;6742;48.036;15.780;2023-03-24T01:53:26;10.90;99.90
13346;DHT22;6742;48.036;15.780;2023-03-24T01:55:54;10.90;99.90
13346;DHT22;6742;48.036;15.780;2023-03-24T01:58:27;11.00;99.90
13346;DHT22;6742;48.036;15.780;2023-03-24T02:00:55;11.00;99.90
13346;DHT22;6742;48.036;15.780;2023-03-24T02:03:24;11.00;99.90
13346;DHT22;6742;48.036;15.780;2023-03-24T02:05:55;11.00;99.90
13346;DHT22;6742;48.036;15.780;2023-03-24T02:08:26;11.00;99.90
13346;DHT22;6742;48.036;15.780;2023-03-24T02:10:54;11.00;99.90
13346;DHT22;6742;48.036;15.780;2023-03-24T02:13:24;11.00;99.90
13346;DHT22;6742;48.036;15.780;2023-03-24T02:15:59;10.90;99.90
13346;DHT22;6742;48.036;15.780;2023-03-24T02:18:40;10.80;99.90
13346;DHT22;6742;48.036;15.780;2023-03-24T02:21:46;10.80;99.90
13346;DHT22;6742;48.036;15.780;2023-03-24T02:27:47;10.90;99.90
13346;DHT22;6742;48.036;15.780;2023-03-24T02:30:35;10.90;99.90
13346;DHT22;6742;48.036;15.780;2023-03-24T02:33:35;10.90;99.90
13346;DHT22;6742;48.036;15.780;2023-03-24T02:36:29;10.90;99.90
13346;DHT22;6742;48.036;15.780;2023-03-24T02:39:31;11.00;99.90
13346;DHT22;6742;48.036;15.780;2023-03-24T02:42:05;10.90;99.90
13346;DHT22;6742;48.036;15.780;2023-03-24T02:44:43;10.90;99.90
13346;DHT22;6742;48.036;15.780;2023-03-24T02:47:21;10.90;99.90
13346;DHT22;6742;48.036;15.780;2023-03-24T02:49:55;10.80;99.90
13346;DHT22;6742;48.036;15.780;2023-03-24T02:52:28;10.80;99.90
13346;DHT22;6742;48.036;15.780;2023-03-24T02:55:00;10.80;99.90
13346;DHT22;6742;48.036;15.780;2023-03-24T02:57:34;10.80;99.90
13346;DHT22;6742;48.036;15.780;2023-03-24T03:00:08;10.80;99.90
13346;DHT22;6742;48.036;15.780;2023-03-24T03:02:43;10.70;99.90
13346;DHT22;6742;48.036;15.780;2023-03-24T03:05:16;10.70;99.90
13346;DHT22;6742;48.036;15.780;2023-03-24T03:07:45;10.70;99.90
13346;DHT22;6742;48.036;15.780;2023-03-24T03:10:19;10.70;99.90
13346;DHT22;6742;48.036;15.780;2023-03-24T03:12:50;10.70;99.90
13346;DHT22;6742;48.036;15.780;2023-03-24T03:15:21;10.70;99.90
13346;DHT22;6742;48.036;15.780;2023-03-24T03:17:52;10.70;99.90
13346;DHT22;6742;48.036;15.780;2023-03-24T03:20:24;10.70;99.90
13346;DHT22;6742;48.036;15.780;2023-03-24T03:22:58;10.70;99.90
13346;DHT22;6742;48.036;15.780;2023-03-24T03:25:34;10.70;99.90
13346;DHT22;6742;48.036;15.780;2023-03-24T03:28:04;10.70;99.90
13346;DHT22;6742;48.036;15.780;2023-03-24T03:30:36;10.80;99.90
13346;DHT22;6742;48.036;15.780;2023-03-24T03:33:07;10.80;99.90
13346;DHT22;6742;48.036;15.780;2023-03-24T03:35:38;10.80;99.90
13346;DHT22;6742;48.036;15.780;2023-03-24T03:38:12;10.80;99.90
13346;DHT22;6742;48.036;15.780;2023-03-24T03:40:49;10.70;99.90
13346;DHT22;6742;48.036;15.780;2023-03-24T03:43:16;10.70;99.90
13346;DHT22;6742;48.036;15.780;2023-03-24T03:45:44;10.70;99.90
13346;DHT22;6742;48.036;15.780;2023-03-24T03:48:11;10.70;99.90
13346;DHT22;6742;48.036;15.780;2023-03-24T03:50:38;10.70;99.90
13346;DHT22;6742;48.036;15.780;2023-03-24T03:53:06;10.70;99.90
13346;DHT22;6742;48.036;15.780;2023-03-24T03:55:34;10.70;99.90
13346;DHT22;6742;48.036;15.780;2023-03-24T03:58:04;10.70;99.90
13346;DHT22;6742;48.036;15.780;2023-03-24T04:00:31;10.70;99.90
13346;DHT22;6742;48.036;15.780;2023-03-24T04:03:23;10.70;99.90
13346;DHT22;6742;48.036;15.780;2023-03-24T04:05:56;10.70;99.90
13346;DHT22;6742;48.036;15.780;2023-03-24T04:08:36;10.60;99.90
13346;DHT22;6742;48.036;15.780;2023-03-24T04:11:35;10.60;99.90
13346;DHT22;6742;48.036;15.780;2023-03-24T04:14:19;10.60;99.90
13346;DHT22;6742;48.036;15.780;2023-03-24T04:16:56;10.60;99.90
13346;DHT22;6742;48.036;15.780;2023-03-24T04:19:37;10.60;99.90
13346;DHT22;6742;48.036;15.780;2023-03-24T04:22:20;10.60;99.90
13346;DHT22;6742;48.036;15.780;2023-03-24T04:24:53;10.60;99.90
13346;DHT22;6742;48.036;15.780;2023-03-24T04:27:26;10.60;99.90
13346;DHT22;6742;48.036;15.780;2023-03-24T04:30:02;10.60;99.90
13346;DHT22;6742;48.036;15.780;2023-03-24T04:32:36;10.70;99.90
13346;DHT22;6742;48.036;15.780;2023-03-24T04:35:10;10.60;99.90
13346;DHT22;6742;48.036;15.780;2023-03-24T04:37:39;10.70;99.90
13346;DHT22;6742;48.036;15.780;2023-03-24T04:40:09;10.70;99.90
13346;DHT22;6742;48.036;15.780;2023-03-24T04:42:39;10.70;99.90
13346;DHT22;6742;48.036;15.780;2023-03-24T04:45:09;10.70;99.90
13346;DHT22;6742;48.036;15.780;2023-03-24T04:47:41;10.60;99.90
13346;DHT22;6742;48.036;15.780;2023-03-24T04:50:10;10.60;99.90
13346;DHT22;6742;48.036;15.780;2023-03-24T04:52:37;10.50;99.90
13346;DHT22;6742;48.036;15.780;2023-03-24T04:55:24;10.50;99.90
13346;DHT22;6742;48.036;15.780;2023-03-24T04:57:56;10.50;99.90
13346;DHT22;6742;48.036;15.780;2023-03-24T05:00:25;10.50;99.90
13346;DHT22;6742;48.036;15.780;2023-03-24T05:02:52;10.60;99.90
13346;DHT22;6742;48.036;15.780;2023-03-24T05:05:19;10.60;99.90
13346;DHT22;6742;48.036;15.780;2023-03-24T05:07:46;10.60;99.90
13346;DHT22;6742;48.036;15.780;2023-03-24T05:10:14;10.60;99.90
13346;DHT22;6742;48.036;15.780;2023-03-24T05:12:41;10.70;99.90
13346;DHT22;6742;48.036;15.780;2023-03-24T05:15:09;10.70;99.90
13346;DHT22;6742;48.036;15.780;2023-03-24T05:17:37;10.70;99.90
13346;DHT22;6742;48.036;15.780;2023-03-24T05:20:06;10.70;99.90
13346;DHT22;6742;48.036;15.780;2023-03-24T05:22:35;10.70;99.90
13346;DHT22;6742;48.036;15.780;2023-03-24T05:25:03;10.60;99.90
13346;DHT22;6742;48.036;15.780;2023-03-24T05:27:30;10.60;99.90
13346;DHT22;6742;48.036;15.780;2023-03-24T05:29:57;10.60;99.90
13346;DHT22;6742;48.036;15.780;2023-03-24T05:32:24;10.50;99.90
13346;DHT22;6742;48.036;15.780;2023-03-24T05:34:53;10.60;99.90
13346;DHT22;6742;48.036;15.780;2023-03-24T05:37:20;10.70;99.90
13346;DHT22;6742;48.036;15.780;2023-03-24T05:39:47;10.60;99.90
13346;DHT22;6742;48.036;15.780;2023-03-24T05:42:14;10.60;99.90
13346;DHT22;6742;48.036;15.780;2023-03-24T05:44:41;10.40;99.90
13346;DHT22;6742;48.036;15.780;2023-03-24T05:47:09;10.50;99.90
13346;DHT22;6742;48.036;15.780;2023-03-24T05:49:37;10.60;99.90
13346;DHT22;6742;48.036;15.780;2023-03-24T05:52:05;10.70;99.90
13346;DHT22;6742;48.036;15.780;2023-03-24T05:54:33;10.80;99.90
13346;DHT22;6742;48.036;15.780;2023-03-24T05:57:00;10.80;99.90
13346;DHT22;6742;48.036;15.780;2023-03-24T05:59:28;10.90;99.90
13346;DHT22;6742;48.036;15.780;2023-03-24T06:01:55;11.00;99.90
13346;DHT22;6742;48.036;15.780;2023-03-24T06:04:23;11.00;99.90
13346;DHT22;6742;48.036;15.780;2023-03-24T06:06:54;10.90;99.90
13346;DHT22;6742;48.036;15.780;2023-03-24T06:09:25;10.90;99.90
13346;DHT22;6742;48.036;15.780;2023-03-24T06:11:54;11.00;99.90
13346;DHT22;6742;48.036;15.780;2023-03-24T06:14:21;10.90;99.90
13346;DHT22;6742;48.036;15.780;2023-03-24T06:16:48;10.90;99.90
13346;DHT22;6742;48.036;15.780;2023-03-24T06:19:15;10.90;99.90
13346;DHT22;6742;48.036;15.780;2023-03-24T06:21:42;10.90;99.90
13346;DHT22;6742;48.036;15.780;2023-03-24T06:24:15;10.90;99.90
13346;DHT22;6742;48.036;15.780;2023-03-24T06:26:43;10.90;99.90
13346;DHT22;6742;48.036;15.780;2023-03-24T06:29:11;11.00;99.90
13346;DHT22;6742;48.036;15.780;2023-03-24T06:31:38;11.00;99.90
13346;DHT22;6742;48.036;15.780;2023-03-24T06:34:05;11.10;99.90
13346;DHT22;6742;48.036;15.780;2023-03-24T06:36:32;11.10;99.90
13346;DHT22;6742;48.036;15.780;2023-03-24T06:38:59;11.20;99.90
13346;DHT22;6742;48.036;15.780;2023-03-24T06:41:26;11.30;99.90
13346;DHT22;6742;48.036;15.780;2023-03-24T06:43:55;11.30;99.90
13346;DHT22;6742;48.036;15.780;2023-03-24T06:46:22;11.40;99.90
13346;DHT22;6742;48.036;15.780;2023-03-24T06:48:49;11.50;99.90
13346;DHT22;6742;48.036;15.780;2023-03-24T06:51:16;11.60;99.90
13346;DHT22;6742;48.036;15.780;2023-03-24T06:53:43;11.70;99.90
13346;DHT22;6742;48.036;15.780;2023-03-24T06:56:11;11.80;99.90
13346;DHT22;6742;48.036;15.780;2023-03-24T06:58:41;11.80;99.90
13346;DHT22;6742;48.036;15.780;2023-03-24T07:01:09;11.90;99.90
13346;DHT22;6742;48.036;15.780;2023-03-24T07:03:37;11.90;99.90
13346;DHT22;6742;48.036;15.780;2023-03-24T07:06:04;12.00;99.90
13346;DHT22;6742;48.036;15.780;2023-03-24T07:08:32;12.10;99.90
13346;DHT22;6742;48.036;15.780;2023-03-24T07:11:00;12.20;99.90
13346;DHT22;6742;48.036;15.780;2023-03-24T07:13:28;12.30;99.90
13346;DHT22;6742;48.036;15.780;2023-03-24T07:15:55;12.50;99.90
13346;DHT22;6742;48.036;15.780;2023-03-24T07:18:23;12.60;99.90
13346;DHT22;6742;48.036;15.780;2023-03-24T07:20:50;12.70;99.90
13346;DHT22;6742;48.036;15.780;2023-03-24T07:23:17;12.80;99.90
13346;DHT22;6742;48.036;15.780;2023-03-24T07:25:44;12.80;99.90
13346;DHT22;6742;48.036;15.780;2023-03-24T07:28:12;12.80;99.90
13346;DHT22;6742;48.036;15.780;2023-03-24T07:30:39;12.90;99.90
13346;DHT22;6742;48.036;15.780;2023-03-24T07:33:06;12.90;99.90
13346;DHT22;6742;48.036;15.780;2023-03-24T07:35:36;13.00;99.90
13346;DHT22;6742;48.036;15.780;2023-03-24T07:38:03;13.00;99.90
13346;DHT22;6742;48.036;15.780;2023-03-24T07:40:30;13.00;99.90
13346;DHT22;6742;48.036;15.780;2023-03-24T07:43:00;13.20;99.90
13346;DHT22;6742;48.036;15.780;2023-03-24T07:45:28;13.30;99.90
13346;DHT22;6742;48.036;15.780;2023-03-24T07:47:55;13.40;99.90
13346;DHT22;6742;48.036;15.780;2023-03-24T07:50:26;13.60;99.90
13346;DHT22;6742;48.036;15.780;2023-03-24T07:52:54;13.80;99.90
13346;DHT22;6742;48.036;15.780;2023-03-24T07:55:22;13.90;99.90
13346;DHT22;6742;48.036;15.780;2023-03-24T07:57:49;14.10;99.90
13346;DHT22;6742;48.036;15.780;2023-03-24T08:00:18;14.20;99.90
13346;DHT22;6742;48.036;15.780;2023-03-24T08:02:47;14.30;99.90
13346;DHT22;6742;48.036;15.780;2023-03-24T08:05:15;14.40;99.90
13346;DHT22;6742;48.036;15.780;2023-03-24T08:07:45;14.50;99.90
13346;DHT22;6742;48.036;15.780;2023-03-24T08:10:20;14.60;99.90
13346;DHT22;6742;48.036;15.780;2023-03-24T08:12:47;14.80;99.90
13346;DHT22;6742;48.036;15.780;2023-03-24T08:15:15;15.00;99.90
13346;DHT22;6742;48.036;15.780;2023-03-24T08:17:42;15.30;99.90
13346;DHT22;6742;48.036;15.780;2023-03-24T08:20:11;15.50;99.90
13346;DHT22;6742;48.036;15.780;2023-03-24T08:22:40;15.80;99.90
13346;DHT22;6742;48.036;15.780;2023-03-24T08:25:08;16.00;99.90
13346;DHT22;6742;48.036;15.780;2023-03-24T08:27:36;16.00;99.90
13346;DHT22;6742;48.036;15.780;2023-03-24T08:30:04;16.10;99.90
13346;DHT22;6742;48.036;15.780;2023-03-24T08:32:32;16.20;99.90
13346;DHT22;6742;48.036;15.780;2023-03-24T08:34:59;16.30;99.90
13346;DHT22;6742;48.036;15.780;2023-03-24T08:37:27;16.50;99.90
13346;DHT22;6742;48.036;15.780;2023-03-24T08:39:54;16.60;99.90
13346;DHT22;6742;48.036;15.780;2023-03-24T08:42:23;16.60;99.90
13346;DHT22;6742;48.036;15.780;2023-03-24T08:44:51;16.60;99.90
13346;DHT22;6742;48.036;15.780;2023-03-24T08:47:18;16.70;99.90
13346;DHT22;6742;48.036;15.780;2023-03-24T08:49:45;16.70;99.90
13346;DHT22;6742;48.036;15.780;2023-03-24T08:52:12;16.60;99.90
13346;DHT22;6742;48.036;15.780;2023-03-24T08:54:39;16.60;99.90
13346;DHT22;6742;48.036;15.780;2023-03-24T08:57:06;16.70;99.90
13346;DHT22;6742;48.036;15.780;2023-03-24T08:59:33;16.80;99.90
13346;DHT22;6742;48.036;15.780;2023-03-24T09:02:01;16.90;99.90
13346;DHT22;6742;48.036;15.780;2023-03-24T09:04:28;17.00;99.90
13346;DHT22;6742;48.036;15.780;2023-03-24T09:06:55;17.20;99.90
13346;DHT22;6742;48.036;15.780;2023-03-24T09:09:24;17.20;99.70
13346;DHT22;6742;48.036;15.780;2023-03-24T09:11:51;17.30;98.50
13346;DHT22;6742;48.036;15.780;2023-03-24T09:14:18;17.30;98.90
13346;DHT22;6742;48.036;15.780;2023-03-24T09:16:47;17.40;98.40
13346;DHT22;6742;48.036;15.780;2023-03-24T09:19:16;17.30;98.40
13346;DHT22;6742;48.036;15.780;2023-03-24T09:21:44;17.20;98.60
13346;DHT22;6742;48.036;15.780;2023-03-24T09:24:11;17.20;99.20
13346;DHT22;6742;48.036;15.780;2023-03-24T09:26:38;17.20;98.90
13346;DHT22;6742;48.036;15.780;2023-03-24T09:29:06;17.30;99.70
13346;DHT22;6742;48.036;15.780;2023-03-24T09:31:33;17.20;99.10
13346;DHT22;6742;48.036;15.780;2023-03-24T09:34:00;17.20;99.10
13346;DHT22;6742;48.036;15.780;2023-03-24T09:36:29;17.30;99.20
13346;DHT22;6742;48.036;15.780;2023-03-24T09:38:56;17.40;99.10
13346;DHT22;6742;48.036;15.780;2023-03-24T09:41:26;17.50;99.40
13346;DHT22;6742;48.036;15.780;2023-03-24T09:43:57;17.70;98.70
13346;DHT22;6742;48.036;15.780;2023-03-24T09:46:29;17.70;97.70
13346;DHT22;6742;48.036;15.780;2023-03-24T09:48:57;17.80;98.30
13346;DHT22;6742;48.036;15.780;2023-03-24T09:51:25;17.90;98.40
13346;DHT22;6742;48.036;15.780;2023-03-24T09:53:59;18.00;97.80
13346;DHT22;6742;48.036;15.780;2023-03-24T09:56:31;18.10;97.50
13346;DHT22;6742;48.036;15.780;2023-03-24T09:59:02;18.20;97.10
13346;DHT22;6742;48.036;15.780;2023-03-24T10:01:30;18.20;97.90
13346;DHT22;6742;48.036;15.780;2023-03-24T10:03:58;18.20;96.90
13346;DHT22;6742;48.036;15.780;2023-03-24T10:06:26;18.30;96.80
13346;DHT22;6742;48.036;15.780;2023-03-24T10:09:06;18.30;97.10
13346;DHT22;6742;48.036;15.780;2023-03-24T10:11:39;18.50;96.80
13346;DHT22;6742;48.036;15.780;2023-03-24T10:14:19;18.60;96.20
13346;DHT22;6742;48.036;15.780;2023-03-24T10:16:53;18.80;96.10
13346;DHT22;6742;48.036;15.780;2023-03-24T10:19:32;18.90;96.60
13346;DHT22;6742;48.036;15.780;2023-03-24T10:22:05;18.90;96.40
13346;DHT22;6742;48.036;15.780;2023-03-24T10:24:44;18.90;95.80
13346;DHT22;6742;48.036;15.780;2023-03-24T10:27:18;18.80;96.20
13346;DHT22;6742;48.036;15.780;2023-03-24T10:29:48;18.90;95.90
13346;DHT22;6742;48.036;15.780;2023-03-24T10:32:20;18.80;95.80
13346;DHT22;6742;48.036;15.780;2023-03-24T10:34:53;18.70;95.80
13346;DHT22;6742;48.036;15.780;2023-03-24T10:37:22;18.70;95.80
13346;DHT22;6742;48.036;15.780;2023-03-24T10:39:50;18.80;95.80
13346;DHT22;6742;48.036;15.780;2023-03-24T10:42:22;18.80;96.20
13346;DHT22;6742;48.036;15.780;2023-03-24T10:44:51;18.70;95.80
13346;DHT22;6742;48.036;15.780;2023-03-24T10:47:23;18.70;96.10
13346;DHT22;6742;48.036;15.780;2023-03-24T10:49:53;18.70;96.00
13346;DHT22;6742;48.036;15.780;2023-03-24T10:52:20;18.70;96.20
13346;DHT22;6742;48.036;15.780;2023-03-24T10:54:55;18.80;96.30
13346;DHT22;6742;48.036;15.780;2023-03-24T10:57:23;18.80;95.80
13346;DHT22;6742;48.036;15.780;2023-03-24T10:59:53;18.80;97.50
13346;DHT22;6742;48.036;15.780;2023-03-24T11:02:23;18.90;96.70
13346;DHT22;6742;48.036;15.780;2023-03-24T11:04:54;18.90;96.90
13346;DHT22;6742;48.036;15.780;2023-03-24T11:07:24;19.00;95.40
13346;DHT22;6742;48.036;15.780;2023-03-24T11:10:01;19.10;95.30
13346;DHT22;6742;48.036;15.780;2023-03-24T11:12:31;19.20;95.20
13346;DHT22;6742;48.036;15.780;2023-03-24T11:15:16;19.30;95.40
13346;DHT22;6742;48.036;15.780;2023-03-24T11:17:43;19.30;96.70
13346;DHT22;6742;48.036;15.780;2023-03-24T11:20:18;19.50;95.60
13346;DHT22;6742;48.036;15.780;2023-03-24T11:22:58;19.60;96.50
13346;DHT22;6742;48.036;15.780;2023-03-24T11:25:28;19.70;95.50
13346;DHT22;6742;48.036;15.780;2023-03-24T11:27:59;19.80;96.20
13346;DHT22;6742;48.036;15.780;2023-03-24T11:30:31;19.90;96.20
13346;DHT22;6742;48.036;15.780;2023-03-24T11:32:59;20.00;96.80
13346;DHT22;6742;48.036;15.780;2023-03-24T11:35:27;20.10;96.00
13346;DHT22;6742;48.036;15.780;2023-03-24T11:37:58;20.10;95.10
13346;DHT22;6742;48.036;15.780;2023-03-24T11:40:30;20.00;95.00
13346;DHT22;6742;48.036;15.780;2023-03-24T11:42:59;20.10;94.10
13346;DHT22;6742;48.036;15.780;2023-03-24T11:45:33;20.20;93.80
13346;DHT22;6742;48.036;15.780;2023-03-24T11:48:04;20.30;93.30
13346;DHT22;6742;48.036;15.780;2023-03-24T11:50:37;20.50;92.90
13346;DHT22;6742;48.036;15.780;2023-03-24T11:53:10;20.60;92.80
13346;DHT22;6742;48.036;15.780;2023-03-24T11:55:43;20.70;91.90
13346;DHT22;6742;48.036;15.780;2023-03-24T11:58:18;20.80;91.90
13346;DHT22;6742;48.036;15.780;2023-03-24T12:00:54;20.90;91.50
13346;DHT22;6742;48.036;15.780;2023-03-24T12:03:47;21.00;92.20
13346;DHT22;6742;48.036;15.780;2023-03-24T12:06:28;21.10;91.30
13346;DHT22;6742;48.036;15.780;2023-03-24T12:09:07;21.30;91.80
13346;DHT22;6742;48.036;15.780;2023-03-24T12:14:38;21.60;91.80
13346;DHT22;6742;48.036;15.780;2023-03-24T12:17:10;21.80;90.20
13346;DHT22;6742;48.036;15.780;2023-03-24T12:22:56;22.10;90.50
13346;DHT22;6742;48.036;15.780;2023-03-24T12:25:36;22.00;90.20
13346;DHT22;6742;48.036;15.780;2023-03-24T12:28:18;21.80;90.00
13346;DHT22;6742;48.036;15.780;2023-03-24T12:30:57;21.60;88.30
13346;DHT22;6742;48.036;15.780;2023-03-24T12:33:35;21.40;87.60
13346;DHT22;6742;48.036;15.780;2023-03-24T12:36:27;21.20;89.00
13346;DHT22;6742;48.036;15.780;2023-03-24T12:39:01;21.00;89.60
13346;DHT22;6742;48.036;15.780;2023-03-24T12:41:48;20.80;90.00
13346;DHT22;6742;48.036;15.780;2023-03-24T12:47:20;20.60;91.50
13346;DHT22;6742;48.036;15.780;2023-03-24T12:50:00;20.50;92.30
13346;DHT22;6742;48.036;15.780;2023-03-24T12:52:43;20.40;92.50
13346;DHT22;6742;48.036;15.780;2023-03-24T12:55:16;20.50;92.60
13346;DHT22;6742;48.036;15.780;2023-03-24T12:57:47;20.50;92.90
13346;DHT22;6742;48.036;15.780;2023-03-24T13:00:20;20.50;92.50
13346;DHT22;6742;48.036;15.780;2023-03-24T13:02:51;20.70;91.00
13346;DHT22;6742;48.036;15.780;2023-03-24T13:05:23;20.70;90.50
13346;DHT22;6742;48.036;15.780;2023-03-24T13:07:56;20.60;90.20
13346;DHT22;6742;48.036;15.780;2023-03-24T13:10:28;20.60;91.40
13346;DHT22;6742;48.036;15.780;2023-03-24T13:12:58;20.50;91.50
13346;DHT22;6742;48.036;15.780;2023-03-24T13:15:32;20.40;91.10
13346;DHT22;6742;48.036;15.780;2023-03-24T13:18:13;20.40;91.20
13346;DHT22;6742;48.036;15.780;2023-03-24T13:20:46;20.40;91.70
13346;DHT22;6742;48.036;15.780;2023-03-24T13:23:26;20.40;92.00
13346;DHT22;6742;48.036;15.780;2023-03-24T13:26:05;20.40;91.20
13346;DHT22;6742;48.036;15.780;2023-03-24T13:28:38;20.20;91.20
13346;DHT22;6742;48.036;15.780;2023-03-24T13:31:09;20.00;91.80
13346;DHT22;6742;48.036;15.780;2023-03-24T13:33:38;19.80;92.00
13346;DHT22;6742;48.036;15.780;2023-03-24T13:36:21;19.80;92.20
13346;DHT22;6742;48.036;15.780;2023-03-24T13:38:54;19.60;92.50
13346;DHT22;6742;48.036;15.780;2023-03-24T13:41:24;19.50;92.70
13346;DHT22;6742;48.036;15.780;2023-03-24T13:43:58;19.30;93.20
13346;DHT22;6742;48.036;15.780;2023-03-24T13:46:27;19.10;93.50
13346;DHT22;6742;48.036;15.780;2023-03-24T13:48:56;19.00;93.80
13346;DHT22;6742;48.036;15.780;2023-03-24T13:51:28;19.00;94.20
13346;DHT22;6742;48.036;15.780;2023-03-24T13:54:03;18.90;94.10
13346;DHT22;6742;48.036;15.780;2023-03-24T13:56:33;18.90;94.80
13346;DHT22;6742;48.036;15.780;2023-03-24T13:59:24;18.70;95.10
13346;DHT22;6742;48.036;15.780;2023-03-24T14:02:40;18.60;95.30
13346;DHT22;6742;48.036;15.780;2023-03-24T14:05:09;18.50;95.80
13346;DHT22;6742;48.036;15.780;2023-03-24T14:07:47;18.60;96.00
13346;DHT22;6742;48.036;15.780;2023-03-24T14:10:36;18.50;96.00
13346;DHT22;6742;48.036;15.780;2023-03-24T14:13:04;18.40;96.10
13346;DHT22;6742;48.036;15.780;2023-03-24T14:15:44;18.30;96.40
13346;DHT22;6742;48.036;15.780;2023-03-24T14:18:39;18.10;96.70
13346;DHT22;6742;48.036;15.780;2023-03-24T14:21:07;18.00;97.10
13346;DHT22;6742;48.036;15.780;2023-03-24T14:23:37;17.80;97.30
13346;DHT22;6742;48.036;15.780;2023-03-24T14:26:10;17.60;97.50
13346;DHT22;6742;48.036;15.780;2023-03-24T14:28:38;17.50;97.50
13346;DHT22;6742;48.036;15.780;2023-03-24T14:31:19;17.30;98.10
13346;DHT22;6742;48.036;15.780;2023-03-24T14:34:04;17.20;98.30
13346;DHT22;6742;48.036;15.780;2023-03-24T14:36:33;17.20;98.60
13346;DHT22;6742;48.036;15.780;2023-03-24T14:39:09;17.00;99.10
13346;DHT22;6742;48.036;15.780;2023-03-24T14:41:40;16.80;99.80
13346;DHT22;6742;48.036;15.780;2023-03-24T14:44:09;16.70;99.90
13346;DHT22;6742;48.036;15.780;2023-03-24T14:46:40;16.50;99.90
13346;DHT22;6742;48.036;15.780;2023-03-24T14:49:20;16.40;99.90
13346;DHT22;6742;48.036;15.780;2023-03-24T14:51:55;16.30;99.90
13346;DHT22;6742;48.036;15.780;2023-03-24T14:54:27;16.20;99.90
13346;DHT22;6742;48.036;15.780;2023-03-24T14:56:57;16.20;99.90
13346;DHT22;6742;48.036;15.780;2023-03-24T14:59:34;16.10;99.90
13346;DHT22;6742;48.036;15.780;2023-03-24T15:02:12;16.00;99.90
13346;DHT22;6742;48.036;15.780;2023-03-24T15:05:20;15.90;99.90
13346;DHT22;6742;48.036;15.780;2023-03-24T15:08:01;15.80;99.90
13346;DHT22;6742;48.036;15.780;2023-03-24T15:10:34;15.80;99.90
13346;DHT22;6742;48.036;15.780;2023-03-24T15:13:02;15.70;99.90
13346;DHT22;6742;48.036;15.780;2023-03-24T15:15:29;15.70;99.90
13346;DHT22;6742;48.036;15.780;2023-03-24T15:17:57;15.60;99.90
13346;DHT22;6742;48.036;15.780;2023-03-24T15:20:27;15.50;99.90
13346;DHT22;6742;48.036;15.780;2023-03-24T15:23:04;15.40;99.90
13346;DHT22;6742;48.036;15.780;2023-03-24T15:25:32;15.40;99.90
13346;DHT22;6742;48.036;15.780;2023-03-24T15:27:59;15.40;99.90
13346;DHT22;6742;48.036;15.780;2023-03-24T15:30:27;15.30;99.90
13346;DHT22;6742;48.036;15.780;2023-03-24T15:32:55;15.20;99.90
13346;DHT22;6742;48.036;15.780;2023-03-24T15:35:23;15.20;99.90
13346;DHT22;6742;48.036;15.780;2023-03-24T15:37:54;15.00;99.90
13346;DHT22;6742;48.036;15.780;2023-03-24T15:40:32;15.00;99.90
13346;DHT22;6742;48.036;15.780;2023-03-24T15:43:01;15.00;99.90
13346;DHT22;6742;48.036;15.780;2023-03-24T15:45:30;15.00;99.90
13346;DHT22;6742;48.036;15.780;2023-03-24T15:48:03;14.80;99.90
13346;DHT22;6742;48.036;15.780;2023-03-24T15:50:33;14.70;99.90
13346;DHT22;6742;48.036;15.780;2023-03-24T15:53:04;14.70;99.90
13346;DHT22;6742;48.036;15.780;2023-03-24T15:55:33;14.70;99.90
13346;DHT22;6742;48.036;15.780;2023-03-24T15:58:13;14.70;99.90
13346;DHT22;6742;48.036;15.780;2023-03-24T16:00:44;14.70;99.90
13346;DHT22;6742;48.036;15.780;2023-03-24T16:03:11;14.80;99.90
13346;DHT22;6742;48.036;15.780;2023-03-24T16:05:45;14.90;99.90
13346;DHT22;6742;48.036;15.780;2023-03-24T16:08:28;14.90;99.90
13346;DHT22;6742;48.036;15.780;2023-03-24T16:11:01;14.90;99.90